createdAt,value
2023-04-13T00:01:17.922Z,50.40
2023-04-13T00:03:44.851Z,50.40
2023-04-13T00:06:11.718Z,50.30
2023-04-13T00:08:39.710Z,50.20
2023-04-13T00:11:06.964Z,50.00
2023-04-13T00:13:33.828Z,49.90
2023-04-13T00:16:00.492Z,49.70
2023-04-13T00:18:27.138Z,49.50
2023-04-13T00:20:53.822Z,49.50
2023-04-13T00:23:20.494Z,49.70
2023-04-13T00:25:48.488Z,49.60
2023-04-13T00:28:15.134Z,49.50
2023-04-13T00:30:41.896Z,49.30
2023-04-13T00:33:08.629Z,49.30
2023-04-13T00:35:35.388Z,49.30
2023-04-13T00:38:02.061Z,49.20
2023-04-13T00:40:28.843Z,49.30
2023-04-13T00:42:56.874Z,49.50
2023-04-13T00:45:23.643Z,49.50
2023-04-13T00:47:50.904Z,49.50
2023-04-13T00:50:19.590Z,49.40
2023-04-13T00:52:47.516Z,49.50
2023-04-13T00:55:14.223Z,49.50
2023-04-13T00:57:41.291Z,49.40
2023-04-13T01:00:10.295Z,49.40
2023-04-13T01:02:37.457Z,49.60
2023-04-13T01:05:05.064Z,49.60
2023-04-13T01:07:37.040Z,49.60
2023-04-13T01:10:08.523Z,49.50
2023-04-13T01:12:40.485Z,49.50
2023-04-13T01:15:11.588Z,49.50
2023-04-13T01:17:41.568Z,49.50
2023-04-13T01:20:10.450Z,49.60
2023-04-13T01:22:39.255Z,49.70
2023-04-13T01:25:20.882Z,49.70
2023-04-13T01:27:53.121Z,49.90
2023-04-13T01:30:21.185Z,49.70
2023-04-13T01:32:49.018Z,49.60
2023-04-13T01:35:16.119Z,49.50
2023-04-13T01:37:43.117Z,49.70
2023-04-13T01:40:10.556Z,49.70
2023-04-13T01:42:38.647Z,49.70
2023-04-13T01:45:14.101Z,49.50
2023-04-13T01:47:50.287Z,49.70
2023-04-13T01:50:28.898Z,49.40
2023-04-13T01:53:00.840Z,49.50
2023-04-13T01:55:28.923Z,49.60
2023-04-13T01:57:57.825Z,49.50
2023-04-13T02:00:28.642Z,49.30
2023-04-13T02:02:55.489Z,49.40
2023-04-13T02:05:22.376Z,49.20
2023-04-13T02:07:49.057Z,49.30
2023-04-13T02:10:15.721Z,49.30
2023-04-13T02:12:42.342Z,49.30
2023-04-13T02:15:10.205Z,49.10
2023-04-13T02:17:38.213Z,49.40
2023-04-13T02:20:06.014Z,49.60
2023-04-13T02:22:32.667Z,49.70
2023-04-13T02:24:59.367Z,49.90
2023-04-13T02:27:26.151Z,49.80
2023-04-13T02:29:52.793Z,49.70
2023-04-13T02:32:19.479Z,49.60
2023-04-13T02:34:47.540Z,49.40
2023-04-13T02:37:14.174Z,49.30
2023-04-13T02:39:40.785Z,49.10
2023-04-13T02:42:07.528Z,49.20
2023-04-13T02:44:34.182Z,49.10
2023-04-13T02:47:00.874Z,49.00
2023-04-13T02:49:27.568Z,49.10
2023-04-13T02:51:55.606Z,48.90
2023-04-13T02:54:22.272Z,48.90
2023-04-13T02:56:48.880Z,49.10
2023-04-13T02:59:15.633Z,49.00
2023-04-13T03:01:42.447Z,49.00
2023-04-13T03:04:09.133Z,49.00
2023-04-13T03:06:35.806Z,49.10
2023-04-13T03:09:03.961Z,49.50
2023-04-13T03:11:30.592Z,49.60
2023-04-13T03:13:57.462Z,49.50
2023-04-13T03:16:24.498Z,49.70
2023-04-13T03:18:51.212Z,49.60
2023-04-13T03:21:17.962Z,49.80
2023-04-13T03:23:44.587Z,49.90
2023-04-13T03:26:12.559Z,49.70
2023-04-13T03:28:39.210Z,49.80
2023-04-13T03:31:06.146Z,49.60
2023-04-13T03:33:32.835Z,49.60
2023-04-13T03:35:59.460Z,49.30
2023-04-13T03:38:26.120Z,49.30
2023-04-13T03:40:52.768Z,49.20
2023-04-13T03:43:20.720Z,49.20
2023-04-13T03:45:47.348Z,49.20
2023-04-13T03:48:13.997Z,48.90
2023-04-13T03:50:40.673Z,48.80
2023-04-13T03:53:07.398Z,48.80
2023-04-13T03:55:34.115Z,48.70
2023-04-13T03:58:00.826Z,48.80
2023-04-13T04:00:28.969Z,48.80
2023-04-13T04:02:55.690Z,48.90
2023-04-13T04:05:22.545Z,49.00
2023-04-13T04:07:49.283Z,49.00
2023-04-13T04:10:15.974Z,49.40
2023-04-13T04:12:42.629Z,49.50
2023-04-13T04:15:10.096Z,49.60
2023-04-13T04:17:39.920Z,49.70
2023-04-13T04:20:08.713Z,49.70
2023-04-13T04:22:35.441Z,49.70
2023-04-13T04:25:02.290Z,49.70
2023-04-13T04:27:29.032Z,49.60
2023-04-13T04:29:55.645Z,49.60
2023-04-13T04:32:22.329Z,49.30
2023-04-13T04:34:50.306Z,49.40
2023-04-13T04:37:20.557Z,49.40
2023-04-13T04:39:47.868Z,49.30
2023-04-13T04:42:14.557Z,50.30
2023-04-13T04:44:41.261Z,49.50
2023-04-13T04:47:07.892Z,50.50
2023-04-13T04:49:34.547Z,49.60
2023-04-13T04:52:02.524Z,50.60
2023-04-13T04:54:29.208Z,50.60
2023-04-13T04:56:55.836Z,50.60
2023-04-13T04:59:22.486Z,50.80
2023-04-13T05:01:49.176Z,50.80
2023-04-13T05:04:15.931Z,50.80
2023-04-13T05:06:42.592Z,50.60
2023-04-13T05:09:10.584Z,50.40
2023-04-13T05:11:37.241Z,50.80
2023-04-13T05:14:03.943Z,50.50
2023-04-13T05:16:31.281Z,50.80
2023-04-13T05:18:58.218Z,51.70
2023-04-13T05:21:25.105Z,51.20
2023-04-13T05:23:51.768Z,51.50
2023-04-13T05:26:19.809Z,51.20
2023-04-13T05:28:46.481Z,51.20
2023-04-13T05:31:13.158Z,51.60
2023-04-13T05:33:39.829Z,51.70
2023-04-13T05:36:07.014Z,51.60
2023-04-13T05:38:33.690Z,51.10
2023-04-13T05:41:00.332Z,51.60
2023-04-13T05:43:28.451Z,51.40
2023-04-13T05:45:55.193Z,51.60
2023-04-13T05:48:21.888Z,51.00
2023-04-13T05:50:48.543Z,51.50
2023-04-13T05:53:15.210Z,51.80
2023-04-13T05:55:42.940Z,51.80
2023-04-13T05:58:09.611Z,51.70
2023-04-13T06:00:37.628Z,50.80
2023-04-13T06:03:04.509Z,51.70
2023-04-13T06:05:31.382Z,51.20
2023-04-13T06:07:58.104Z,51.10
2023-04-13T06:10:24.787Z,50.80
2023-04-13T06:12:51.495Z,51.40
2023-04-13T06:15:19.398Z,51.10
2023-04-13T06:17:50.471Z,51.00
2023-04-13T06:20:17.199Z,51.30
2023-04-13T06:22:43.822Z,51.20
2023-04-13T06:25:10.492Z,51.40
2023-04-13T06:27:37.305Z,51.20
2023-04-13T06:30:04.947Z,51.30
2023-04-13T06:32:31.613Z,51.30
2023-04-13T06:34:59.584Z,51.40
2023-04-13T06:37:26.361Z,51.80
2023-04-13T06:39:53.018Z,51.40
2023-04-13T06:42:19.649Z,51.30
2023-04-13T06:44:46.311Z,50.70
2023-04-13T06:47:13.014Z,50.60
2023-04-13T06:49:39.651Z,50.80
2023-04-13T06:52:07.747Z,51.10
2023-04-13T06:54:35.440Z,51.20
2023-04-13T06:57:02.103Z,50.90
2023-04-13T06:59:28.820Z,51.00
2023-04-13T07:01:55.563Z,50.80
2023-04-13T07:04:22.753Z,50.40
2023-04-13T07:06:50.636Z,50.50
2023-04-13T07:09:18.684Z,50.80
2023-04-13T07:11:45.332Z,50.60
2023-04-13T07:14:11.995Z,50.30
2023-04-13T07:16:38.748Z,50.50
2023-04-13T07:19:05.607Z,50.20
2023-04-13T07:21:32.279Z,50.00
2023-04-13T07:23:58.921Z,50.20
2023-04-13T07:26:26.998Z,50.20
2023-04-13T07:28:53.665Z,50.20
2023-04-13T07:31:20.331Z,50.20
2023-04-13T07:33:47.212Z,50.40
2023-04-13T07:36:13.860Z,50.00
2023-04-13T07:38:40.510Z,50.40
2023-04-13T07:41:07.178Z,50.50
2023-04-13T07:43:35.113Z,50.50
2023-04-13T07:46:08.676Z,50.40
2023-04-13T07:48:35.323Z,50.20
2023-04-13T07:51:02.044Z,50.20
2023-04-13T07:53:28.699Z,50.30
2023-04-13T07:55:55.356Z,50.20
2023-04-13T07:58:21.983Z,50.30
2023-04-13T08:00:49.998Z,50.30
2023-04-13T08:03:16.805Z,49.80
2023-04-13T08:05:45.583Z,49.90
2023-04-13T08:08:13.643Z,49.90
2023-04-13T08:10:40.286Z,50.20
2023-04-13T08:13:06.994Z,49.60
2023-04-13T08:15:33.672Z,49.80
2023-04-13T08:18:01.731Z,49.80
2023-04-13T08:20:29.269Z,49.90
2023-04-13T08:22:55.966Z,49.60
2023-04-13T08:25:22.659Z,48.70
2023-04-13T08:27:49.344Z,48.40
2023-04-13T08:30:16.043Z,48.20
2023-04-13T08:32:42.731Z,48.50
2023-04-13T08:35:10.890Z,48.30
2023-04-13T08:37:38.200Z,48.30
2023-04-13T08:40:06.046Z,48.50
2023-04-13T08:42:33.876Z,48.70
2023-04-13T08:45:02.597Z,48.50
2023-04-13T08:47:29.705Z,48.70
2023-04-13T08:49:57.889Z,48.30
2023-04-13T08:52:26.525Z,47.80
2023-04-13T08:54:54.952Z,48.50
2023-04-13T08:57:22.308Z,47.70
2023-04-13T08:59:51.112Z,47.50
2023-04-13T09:02:20.214Z,48.50
2023-04-13T09:04:47.781Z,48.20
2023-04-13T09:07:22.330Z,47.90
2023-04-13T09:09:51.634Z,47.40
2023-04-13T09:12:18.313Z,47.50
2023-04-13T09:14:45.358Z,47.40
2023-04-13T09:17:23.295Z,47.70
2023-04-13T09:19:50.024Z,46.80
2023-04-13T09:22:16.795Z,46.70
2023-04-13T09:24:43.608Z,47.20
2023-04-13T09:27:19.081Z,46.70
2023-04-13T09:29:49.408Z,45.60
2023-04-13T09:32:19.362Z,46.70
2023-04-13T09:34:56.517Z,45.70
2023-04-13T09:37:23.240Z,46.30
2023-04-13T09:39:49.992Z,46.20
2023-04-13T09:42:17.997Z,46.60
2023-04-13T09:44:54.790Z,46.50
2023-04-13T09:47:21.651Z,46.00
2023-04-13T09:49:48.499Z,46.30
2023-04-13T09:52:22.324Z,46.20
2023-04-13T09:54:56.475Z,45.70
2023-04-13T09:57:25.114Z,46.20
2023-04-13T09:59:52.652Z,46.20
2023-04-13T10:02:19.950Z,45.40
2023-04-13T10:04:47.029Z,43.90
2023-04-13T10:07:13.804Z,44.40
2023-04-13T10:09:40.588Z,45.30
2023-04-13T10:12:10.505Z,45.50
2023-04-13T10:14:40.927Z,45.30
2023-04-13T10:17:32.422Z,45.90
2023-04-13T10:20:01.886Z,44.80
2023-04-13T10:22:28.799Z,45.20
2023-04-13T10:24:55.626Z,45.00
2023-04-13T10:27:22.956Z,44.80
2023-04-13T10:29:51.046Z,44.00
2023-04-13T10:32:22.147Z,44.40
2023-04-13T10:34:49.198Z,44.70
2023-04-13T10:37:17.028Z,45.50
2023-04-13T10:39:43.952Z,44.90
2023-04-13T10:42:11.295Z,45.70
2023-04-13T10:44:42.544Z,45.20
2023-04-13T10:47:10.999Z,44.20
2023-04-13T10:49:38.114Z,44.60
2023-04-13T10:52:04.780Z,44.00
2023-04-13T10:54:32.656Z,44.10
2023-04-13T10:57:00.691Z,44.80
2023-04-13T10:59:55.641Z,44.30
2023-04-13T11:02:26.966Z,42.90
2023-04-13T11:04:54.201Z,43.80
2023-04-13T11:07:22.463Z,43.90
2023-04-13T11:09:49.800Z,44.90
2023-04-13T11:12:16.931Z,44.70
2023-04-13T11:14:48.000Z,44.70
2023-04-13T11:17:16.305Z,44.10
2023-04-13T11:19:50.507Z,44.00
2023-04-13T11:22:18.374Z,43.70
2023-04-13T11:24:46.006Z,44.90
2023-04-13T11:27:17.429Z,44.60
2023-04-13T11:29:44.186Z,43.10
2023-04-13T11:32:16.483Z,44.20
2023-04-13T11:34:43.223Z,43.50
2023-04-13T11:37:11.582Z,44.20
2023-04-13T11:39:38.387Z,41.50
2023-04-13T11:42:05.905Z,41.90
2023-04-13T11:44:34.474Z,43.50
2023-04-13T11:47:02.445Z,44.10
2023-04-13T11:49:29.580Z,44.40
2023-04-13T11:51:56.709Z,44.50
2023-04-13T11:54:25.263Z,44.10
2023-04-13T11:56:52.292Z,43.80
2023-04-13T11:59:23.225Z,44.90
2023-04-13T12:01:58.096Z,43.90
2023-04-13T12:04:37.047Z,44.20
2023-04-13T12:07:10.632Z,44.00
2023-04-13T12:12:50.755Z,43.70
2023-04-13T12:15:16.993Z,44.60
2023-04-13T12:17:58.126Z,43.40
2023-04-13T12:20:34.722Z,44.00
2023-04-13T12:23:08.615Z,43.40
2023-04-13T12:25:56.240Z,43.40
2023-04-13T12:28:27.621Z,44.20
2023-04-13T12:30:54.251Z,44.60
2023-04-13T12:33:20.951Z,44.40
2023-04-13T12:35:47.684Z,42.30
2023-04-13T12:38:14.437Z,42.70
2023-04-13T12:40:41.115Z,42.70
2023-04-13T12:43:09.294Z,44.20
2023-04-13T12:45:36.035Z,44.10
2023-04-13T12:48:02.800Z,42.50
2023-04-13T12:50:30.845Z,39.80
2023-04-13T12:52:58.687Z,42.00
2023-04-13T12:55:25.661Z,43.70
2023-04-13T12:57:52.299Z,41.30
2023-04-13T13:00:21.466Z,40.40
2023-04-13T13:02:52.176Z,42.40
2023-04-13T13:05:23.384Z,43.70
2023-04-13T13:07:50.139Z,43.50
2023-04-13T13:12:48.899Z,42.90
2023-04-13T13:15:15.594Z,41.10
2023-04-13T13:17:43.973Z,42.00
2023-04-13T13:20:12.402Z,42.50
2023-04-13T13:22:39.516Z,42.70
2023-04-13T13:25:07.812Z,42.70
2023-04-13T13:30:07.515Z,42.70
2023-04-13T13:32:34.767Z,43.50
2023-04-13T13:35:03.410Z,42.40
2023-04-13T13:37:30.055Z,41.70
2023-04-13T13:39:56.709Z,42.90
2023-04-13T13:42:23.406Z,43.60
2023-04-13T13:44:50.086Z,43.20
2023-04-13T13:47:16.816Z,43.00
2023-04-13T13:49:43.492Z,41.80
2023-04-13T13:52:11.510Z,40.90
2023-04-13T13:54:38.153Z,41.30
2023-04-13T13:57:04.804Z,40.60
2023-04-13T13:59:31.473Z,40.60
2023-04-13T14:01:58.316Z,40.70
2023-04-13T14:04:25.186Z,40.60
2023-04-13T14:06:51.889Z,40.60
2023-04-13T14:09:19.943Z,40.00
2023-04-13T14:11:46.654Z,39.90
2023-04-13T14:14:21.110Z,40.50
2023-04-13T14:16:48.270Z,41.10
2023-04-13T14:19:14.910Z,40.40
2023-04-13T14:21:41.606Z,40.90
2023-04-13T14:24:08.384Z,40.20
2023-04-13T14:26:36.430Z,41.50
2023-04-13T14:29:03.105Z,40.50
2023-04-13T14:31:29.773Z,41.00
2023-04-13T14:33:56.426Z,41.20
2023-04-13T14:36:23.161Z,42.10
2023-04-13T14:38:49.847Z,42.70
2023-04-13T14:41:16.532Z,42.20
2023-04-13T14:43:44.597Z,41.30
2023-04-13T14:46:11.398Z,41.60
2023-04-13T14:48:38.179Z,42.40
2023-04-13T14:51:04.977Z,42.80
2023-04-13T14:53:31.629Z,41.90
2023-04-13T14:55:58.308Z,41.50
2023-04-13T14:58:24.994Z,41.70
2023-04-13T15:00:53.084Z,40.90
2023-04-13T15:03:19.854Z,43.20
2023-04-13T15:05:47.483Z,43.80
2023-04-13T15:08:14.292Z,43.20
2023-04-13T15:10:41.233Z,43.70
2023-04-13T15:13:07.906Z,42.80
2023-04-13T15:15:36.772Z,43.10
2023-04-13T15:18:05.362Z,42.60
2023-04-13T15:20:32.501Z,42.80
2023-04-13T15:22:59.388Z,42.10
2023-04-13T15:25:26.670Z,42.30
2023-04-13T15:27:54.834Z,42.30
2023-04-13T15:30:25.756Z,41.50
2023-04-13T15:32:52.704Z,41.40
2023-04-13T15:35:20.693Z,41.30
2023-04-13T15:37:47.472Z,41.20
2023-04-13T15:40:14.447Z,41.80
2023-04-13T15:42:41.253Z,42.00
2023-04-13T15:45:08.959Z,41.60
2023-04-13T15:47:36.110Z,41.70
2023-04-13T15:50:03.072Z,41.70
2023-04-13T15:52:31.630Z,41.40
2023-04-13T15:54:58.613Z,40.70
2023-04-13T15:57:25.355Z,42.40
2023-04-13T15:59:52.097Z,42.10
2023-04-13T16:02:19.247Z,41.70
2023-04-13T16:04:46.033Z,41.60
2023-04-13T16:07:14.575Z,42.00
2023-04-13T16:09:43.843Z,42.00
2023-04-13T16:12:11.181Z,41.60
2023-04-13T16:14:38.033Z,41.50
2023-04-13T16:17:05.582Z,42.00
2023-04-13T16:19:32.297Z,40.90
2023-04-13T16:21:59.292Z,40.40
2023-04-13T16:24:26.004Z,40.70
2023-04-13T16:26:53.975Z,41.50
2023-04-13T16:29:20.696Z,40.90
2023-04-13T16:31:47.546Z,41.00
2023-04-13T16:34:25.638Z,41.40
2023-04-13T16:36:53.472Z,41.60
2023-04-13T16:39:20.169Z,41.50
2023-04-13T16:41:46.851Z,41.50
2023-04-13T16:44:14.933Z,42.40
2023-04-13T16:46:41.704Z,42.80
2023-04-13T16:49:08.459Z,42.90
2023-04-13T16:51:35.167Z,42.70
2023-04-13T16:54:03.705Z,42.90
2023-04-13T16:56:30.726Z,42.80
2023-04-13T16:58:57.849Z,42.90
2023-04-13T17:01:26.099Z,42.40
2023-04-13T17:03:53.074Z,42.70
2023-04-13T17:06:19.952Z,43.00
2023-04-13T17:08:46.708Z,42.90
2023-04-13T17:11:13.380Z,42.70
2023-04-13T17:13:40.075Z,42.60
2023-04-13T17:16:08.326Z,43.00
2023-04-13T17:18:36.475Z,42.60
2023-04-13T17:21:03.134Z,42.90
2023-04-13T17:23:29.816Z,43.10
2023-04-13T17:25:56.718Z,43.20
2023-04-13T17:28:24.221Z,42.80
2023-04-13T17:30:51.148Z,43.20
2023-04-13T17:33:17.877Z,42.90
2023-04-13T17:35:45.945Z,42.90
2023-04-13T17:38:12.593Z,42.70
2023-04-13T17:40:39.225Z,42.90
2023-04-13T17:43:05.907Z,43.00
2023-04-13T17:45:32.609Z,43.20
2023-04-13T17:47:59.372Z,43.20
2023-04-13T17:50:26.122Z,43.30
2023-04-13T17:52:54.197Z,42.70
2023-04-13T17:55:20.843Z,42.90
2023-04-13T17:57:47.541Z,42.60
2023-04-13T18:00:15.117Z,42.70
2023-04-13T18:02:42.009Z,43.00
2023-04-13T18:05:09.415Z,43.20
2023-04-13T18:07:36.039Z,43.20
2023-04-13T18:10:04.623Z,43.40
2023-04-13T18:12:31.282Z,43.70
2023-04-13T18:14:58.000Z,43.90
2023-04-13T18:17:24.722Z,43.90
2023-04-13T18:19:52.111Z,44.20
2023-04-13T18:22:18.821Z,44.20
2023-04-13T18:24:45.497Z,44.30
2023-04-13T18:27:13.492Z,44.30
2023-04-13T18:29:40.164Z,44.40
2023-04-13T18:32:06.911Z,44.60
2023-04-13T18:34:35.099Z,44.80
2023-04-13T18:37:02.972Z,44.80
2023-04-13T18:39:29.643Z,44.60
2023-04-13T18:41:56.372Z,44.60
2023-04-13T18:44:24.445Z,44.90
2023-04-13T18:46:51.350Z,45.10
2023-04-13T18:49:18.317Z,45.20
2023-04-13T18:51:45.058Z,45.10
2023-04-13T18:54:11.787Z,45.10
2023-04-13T18:56:38.461Z,45.00
2023-04-13T18:59:05.323Z,45.20
2023-04-13T19:01:33.370Z,45.50
2023-04-13T19:04:00.311Z,45.20
2023-04-13T19:06:27.321Z,45.40
2023-04-13T19:08:54.021Z,45.50
2023-04-13T19:11:23.450Z,45.20
2023-04-13T19:13:50.109Z,45.40
2023-04-13T19:16:16.819Z,45.60
2023-04-13T19:18:44.881Z,45.40
2023-04-13T19:21:11.544Z,45.40
2023-04-13T19:23:40.285Z,45.50
2023-04-13T19:26:07.338Z,45.90
2023-04-13T19:28:34.164Z,45.70
2023-04-13T19:31:00.859Z,45.80
2023-04-13T19:33:27.530Z,45.90
2023-04-13T19:35:55.537Z,46.20
2023-04-13T19:38:22.223Z,46.10
2023-04-13T19:40:48.913Z,46.00
2023-04-13T19:43:15.601Z,46.10
2023-04-13T19:45:42.305Z,46.10
2023-04-13T19:48:09.069Z,46.10
2023-04-13T19:50:35.850Z,46.10
2023-04-13T19:53:03.940Z,46.20
2023-04-13T19:55:30.640Z,46.20
2023-04-13T19:57:57.322Z,46.40
2023-04-13T20:00:24.761Z,46.40
2023-04-13T20:02:51.910Z,46.60
2023-04-13T20:05:19.975Z,46.50
2023-04-13T20:07:46.714Z,46.50
2023-04-13T20:10:14.804Z,46.60
2023-04-13T20:12:41.480Z,46.60
2023-04-13T20:15:08.580Z,46.70
2023-04-13T20:17:35.339Z,46.70
2023-04-13T20:20:02.124Z,46.70
2023-04-13T20:22:28.872Z,46.80
2023-04-13T20:24:55.591Z,46.70
2023-04-13T20:27:23.742Z,46.70
2023-04-13T20:29:51.366Z,46.70
2023-04-13T20:32:18.128Z,46.70
2023-04-13T20:34:44.892Z,46.70
2023-04-13T20:37:11.584Z,46.70
2023-04-13T20:39:38.318Z,46.90
2023-04-13T20:42:05.173Z,46.80
2023-04-13T20:44:33.179Z,46.90
2023-04-13T20:47:00.035Z,47.10
2023-04-13T20:49:26.782Z,47.40
2023-04-13T20:51:53.742Z,47.40
2023-04-13T20:54:20.486Z,47.50
2023-04-13T20:56:47.297Z,47.60
2023-04-13T20:59:14.040Z,47.80
2023-04-13T21:01:42.265Z,47.90
2023-04-13T21:04:09.754Z,47.80
2023-04-13T21:06:36.570Z,47.70
2023-04-13T21:09:03.390Z,47.80
2023-04-13T21:11:30.084Z,48.00
2023-04-13T21:13:56.860Z,47.90
2023-04-13T21:16:24.718Z,48.10
2023-04-13T21:18:54.551Z,48.10
2023-04-13T21:21:21.338Z,48.20
2023-04-13T21:23:48.215Z,48.20
2023-04-13T21:26:14.857Z,48.00
2023-04-13T21:28:41.496Z,48.20
2023-04-13T21:31:08.227Z,48.10
2023-04-13T21:33:35.000Z,48.10
2023-04-13T21:38:39.606Z,47.70
2023-04-13T21:41:06.456Z,47.70
2023-04-13T21:43:33.148Z,48.00
2023-04-13T21:45:59.901Z,48.10
2023-04-13T21:48:26.640Z,48.20
2023-04-13T21:50:53.296Z,48.20
2023-04-13T21:53:21.321Z,48.30
2023-04-13T21:55:48.025Z,48.30
2023-04-13T21:58:14.709Z,48.10
2023-04-13T22:00:41.536Z,48.20
2023-04-13T22:03:08.373Z,48.20
2023-04-13T22:05:35.168Z,48.20
2023-04-13T22:08:01.910Z,48.20
2023-04-13T22:10:30.006Z,48.20
2023-04-13T22:12:56.651Z,48.00
2023-04-13T22:15:23.322Z,48.00
2023-04-13T22:17:50.046Z,48.00
2023-04-13T22:20:16.861Z,48.00
2023-04-13T22:22:43.591Z,48.10
2023-04-13T22:25:10.225Z,48.10
2023-04-13T22:27:38.191Z,48.00
2023-04-13T22:30:06.217Z,47.90
2023-04-13T22:32:32.916Z,47.90
2023-04-13T22:34:59.619Z,47.80
2023-04-13T22:37:28.908Z,47.70
2023-04-13T22:39:55.585Z,47.70
2023-04-13T22:42:22.237Z,47.70
2023-04-13T22:44:50.241Z,48.50
2023-04-13T22:47:17.005Z,47.90
2023-04-13T22:49:43.663Z,47.90
2023-04-13T22:52:10.301Z,47.90
2023-04-13T22:54:36.962Z,47.90
2023-04-13T22:57:05.196Z,47.90
2023-04-13T22:59:32.085Z,47.90
2023-04-13T23:02:00.339Z,47.80
2023-04-13T23:04:27.376Z,47.90
2023-04-13T23:06:54.088Z,48.00
2023-04-13T23:09:20.745Z,48.00
2023-04-13T23:11:47.569Z,48.00
2023-04-13T23:14:17.216Z,48.10
2023-04-13T23:16:44.117Z,48.00
2023-04-13T23:19:12.191Z,48.00
2023-04-13T23:21:38.891Z,48.10
2023-04-13T23:24:05.776Z,48.10
2023-04-13T23:26:32.424Z,48.10
2023-04-13T23:28:59.280Z,48.00
2023-04-13T23:31:26.244Z,48.10
2023-04-13T23:33:54.856Z,48.10
2023-04-13T23:36:23.530Z,48.10
2023-04-13T23:38:50.175Z,48.20
2023-04-13T23:41:16.828Z,48.20
2023-04-13T23:43:43.507Z,48.20
2023-04-13T23:46:10.243Z,48.30
2023-04-13T23:48:36.997Z,48.30
2023-04-13T23:51:03.818Z,48.40
2023-04-13T23:53:31.976Z,48.40
2023-04-13T23:55:58.859Z,48.30
2023-04-13T23:58:25.592Z,48.40
